This is the latest recevied weather packets stored in our database for station/object EA3FL-15. If no packets are shown the sender has not sent any weather packets the latest 10 day(s).
| Time | Temp. | Humidity | Pressure | Rain* | Wind** | Luminosity | Snow |
|---|---|---|---|---|---|---|---|
| 1777309791 | 23.89° C | 94% | 1019.8 hPa | - | - | - | - |
| 1777308886 | 25° C | 95% | 1019.9 hPa | - | - | - | - |
| 1777307086 | 25.56° C | 65% | 1020 hPa | - | - | - | - |
| 1777306186 | 23.89° C | 90% | 1020.2 hPa | - | - | - | - |
| 1777305286 | 24.44° C | 66% | 1020.2 hPa | - | - | - | - |
| 1777304389 | 22.78° C | 100% | 1020.3 hPa | - | - | - | - |
| 1777303486 | 24.44° C | 90% | 1020.2 hPa | - | - | - | - |
| 1777302587 | 23.33° C | 100% | 1020.2 hPa | - | - | - | - |
| 1777301686 | 23.33° C | 100% | 1020.3 hPa | - | - | - | - |
| 1777300787 | 22.78° C | 100% | 1020.5 hPa | - | - | - | - |
| 1777299904 | 22.78° C | 100% | 1020.4 hPa | - | - | - | - |
| 1777299004 | 22.22° C | 100% | 1020.4 hPa | - | - | - | - |
| 1777298103 | 22.22° C | 100% | 1020.6 hPa | - | - | - | - |
| 1777297203 | 22.78° C | 99% | 1020.7 hPa | - | - | - | - |
| 1777296305 | 22.22° C | 100% | 1020.9 hPa | - | - | - | - |
| 1777295403 | 22.22° C | 100% | 1021 hPa | - | - | - | - |
| 1777294504 | 22.22° C | 100% | 1021.1 hPa | - | - | - | - |
| 1777293603 | 21.67° C | 100% | 1021.1 hPa | - | - | - | - |
| 1777292703 | 22.22° C | 100% | 1021.2 hPa | - | - | - | - |
| 1777291803 | 21.67° C | 100% | 1021.3 hPa | - | - | - | - |
| 1777290902 | 21.67° C | 100% | 1021.5 hPa | - | - | - | - |
| 1777290002 | 21.11° C | 100% | 1021.7 hPa | - | - | - | - |
| 1777289102 | 21.11° C | 100% | 1021.9 hPa | - | - | - | - |
| 1777288203 | 20.56° C | 100% | 1022.1 hPa | - | - | - | - |
| 1777287302 | 20.56° C | 100% | 1022.1 hPa | - | - | - | - |
* Rain since midnight (hover to see other rain measurements)
** Current wind speed in m/s (hover to see current wind gust speed)